Terminal Aerodrome Forecast
Issued by NWS Wilmington, NC

Home | Current Version | Previous Version | Text Only | Print | Product List | Glossary On
Versions: 1 2 3 4 5 6 7 8 9 10 11 12 13 14 15 16 17
000
FTUS42 KILM 192320
TAFMYR
TAF
KMYR 192320Z 2000/2024 11010KT P6SM SCT250
     FM200300 06004KT P6SM BKN150
     FM201400 19005KT P6SM OVC025
     FM201500 20006KT P6SM OVC050
     FM201700 21009KT P6SM BKN250
      AMD LTD TO CLD VIS AND WIND 2004/2011=

USA.gov is the U.S. government's official web portal to all federal, state and local government web resources and services.